sensor_id;sensor_type;location;lat;lon;timestamp;P1;durP1;ratioP1;P2;durP2;ratioP2
33993;SDS011;20673;48.980;8.138;2023-07-13T00:02:16;2.15;;;1.35;;
33993;SDS011;20673;48.980;8.138;2023-07-13T00:04:42;2.72;;;1.32;;
33993;SDS011;20673;48.980;8.138;2023-07-13T00:07:08;2.35;;;1.62;;
33993;SDS011;20673;48.980;8.138;2023-07-13T00:09:34;2.92;;;1.52;;
33993;SDS011;20673;48.980;8.138;2023-07-13T00:12:01;2.65;;;1.57;;
33993;SDS011;20673;48.980;8.138;2023-07-13T00:14:28;3.08;;;1.70;;
33993;SDS011;20673;48.980;8.138;2023-07-13T00:16:55;3.60;;;1.30;;
33993;SDS011;20673;48.980;8.138;2023-07-13T00:19:22;2.07;;;1.20;;
33993;SDS011;20673;48.980;8.138;2023-07-13T00:21:48;4.65;;;1.42;;
33993;SDS011;20673;48.980;8.138;2023-07-13T00:24:15;9.08;;;1.92;;
33993;SDS011;20673;48.980;8.138;2023-07-13T00:26:45;3.42;;;1.80;;
33993;SDS011;20673;48.980;8.138;2023-07-13T00:29:11;2.20;;;1.45;;
33993;SDS011;20673;48.980;8.138;2023-07-13T00:31:38;4.65;;;1.80;;
33993;SDS011;20673;48.980;8.138;2023-07-13T00:34:04;2.15;;;1.50;;
33993;SDS011;20673;48.980;8.138;2023-07-13T00:36:31;3.72;;;1.55;;
33993;SDS011;20673;48.980;8.138;2023-07-13T00:38:57;2.35;;;1.22;;
33993;SDS011;20673;48.980;8.138;2023-07-13T00:41:23;2.45;;;1.70;;
33993;SDS011;20673;48.980;8.138;2023-07-13T00:43:50;3.15;;;1.60;;
33993;SDS011;20673;48.980;8.138;2023-07-13T00:46:37;3.58;;;1.52;;
33993;SDS011;20673;48.980;8.138;2023-07-13T00:48:51;3.08;;;1.60;;
33993;SDS011;20673;48.980;8.138;2023-07-13T00:51:27;2.40;;;1.70;;
33993;SDS011;20673;48.980;8.138;2023-07-13T00:53:58;4.70;;;1.75;;
33993;SDS011;20673;48.980;8.138;2023-07-13T00:56:28;3.35;;;1.32;;
33993;SDS011;20673;48.980;8.138;2023-07-13T00:58:57;3.10;;;1.60;;
33993;SDS011;20673;48.980;8.138;2023-07-13T01:01:27;6.42;;;1.70;;
33993;SDS011;20673;48.980;8.138;2023-07-13T01:03:54;3.62;;;1.30;;
33993;SDS011;20673;48.980;8.138;2023-07-13T01:06:22;2.33;;;1.55;;
33993;SDS011;20673;48.980;8.138;2023-07-13T01:08:48;2.65;;;1.55;;
33993;SDS011;20673;48.980;8.138;2023-07-13T01:11:18;2.62;;;1.62;;
33993;SDS011;20673;48.980;8.138;2023-07-13T01:13:47;3.00;;;1.42;;
33993;SDS011;20673;48.980;8.138;2023-07-13T01:16:19;2.20;;;1.60;;
33993;SDS011;20673;48.980;8.138;2023-07-13T01:18:46;3.17;;;1.25;;
33993;SDS011;20673;48.980;8.138;2023-07-13T01:21:13;4.22;;;1.75;;
33993;SDS011;20673;48.980;8.138;2023-07-13T01:23:39;1.65;;;1.55;;
33993;SDS011;20673;48.980;8.138;2023-07-13T01:26:05;2.75;;;1.85;;
33993;SDS011;20673;48.980;8.138;2023-07-13T01:28:31;3.35;;;1.70;;
33993;SDS011;20673;48.980;8.138;2023-07-13T01:30:59;6.70;;;1.90;;
33993;SDS011;20673;48.980;8.138;2023-07-13T01:33:25;3.30;;;2.10;;
33993;SDS011;20673;48.980;8.138;2023-07-13T01:35:52;1.95;;;1.40;;
33993;SDS011;20673;48.980;8.138;2023-07-13T01:38:19;3.52;;;1.62;;
33993;SDS011;20673;48.980;8.138;2023-07-13T01:40:48;4.60;;;1.70;;
33993;SDS011;20673;48.980;8.138;2023-07-13T01:43:14;3.95;;;1.67;;
33993;SDS011;20673;48.980;8.138;2023-07-13T01:45:40;1.87;;;1.10;;
33993;SDS011;20673;48.980;8.138;2023-07-13T01:48:09;3.77;;;1.27;;
33993;SDS011;20673;48.980;8.138;2023-07-13T01:50:36;2.22;;;1.70;;
33993;SDS011;20673;48.980;8.138;2023-07-13T01:53:02;2.15;;;1.57;;
33993;SDS011;20673;48.980;8.138;2023-07-13T01:55:30;5.28;;;1.90;;
33993;SDS011;20673;48.980;8.138;2023-07-13T01:57:57;4.95;;;2.00;;
33993;SDS011;20673;48.980;8.138;2023-07-13T02:00:23;5.40;;;1.70;;
33993;SDS011;20673;48.980;8.138;2023-07-13T02:02:50;4.40;;;2.30;;
33993;SDS011;20673;48.980;8.138;2023-07-13T02:05:16;3.27;;;2.10;;
33993;SDS011;20673;48.980;8.138;2023-07-13T02:07:43;1.70;;;1.50;;
33993;SDS011;20673;48.980;8.138;2023-07-13T02:10:09;3.05;;;1.65;;
33993;SDS011;20673;48.980;8.138;2023-07-13T02:12:37;2.77;;;1.83;;
33993;SDS011;20673;48.980;8.138;2023-07-13T02:15:04;2.60;;;1.60;;
33993;SDS011;20673;48.980;8.138;2023-07-13T02:17:31;2.40;;;1.53;;
33993;SDS011;20673;48.980;8.138;2023-07-13T02:19:57;2.67;;;1.70;;
33993;SDS011;20673;48.980;8.138;2023-07-13T02:22:23;3.33;;;1.80;;
33993;SDS011;20673;48.980;8.138;2023-07-13T02:24:50;2.58;;;1.72;;
33993;SDS011;20673;48.980;8.138;2023-07-13T02:27:16;4.45;;;2.40;;
33993;SDS011;20673;48.980;8.138;2023-07-13T02:29:42;3.83;;;1.93;;
33993;SDS011;20673;48.980;8.138;2023-07-13T02:32:08;3.35;;;1.90;;
33993;SDS011;20673;48.980;8.138;2023-07-13T02:34:34;3.10;;;1.70;;
33993;SDS011;20673;48.980;8.138;2023-07-13T02:37:00;3.27;;;1.93;;
33993;SDS011;20673;48.980;8.138;2023-07-13T02:39:28;4.90;;;1.90;;
33993;SDS011;20673;48.980;8.138;2023-07-13T02:41:55;3.90;;;2.05;;
33993;SDS011;20673;48.980;8.138;2023-07-13T02:44:21;6.20;;;1.90;;
33993;SDS011;20673;48.980;8.138;2023-07-13T02:46:47;2.80;;;1.40;;
33993;SDS011;20673;48.980;8.138;2023-07-13T02:49:13;3.40;;;1.70;;
33993;SDS011;20673;48.980;8.138;2023-07-13T02:51:39;3.50;;;1.83;;
33993;SDS011;20673;48.980;8.138;2023-07-13T02:54:05;3.47;;;1.90;;
33993;SDS011;20673;48.980;8.138;2023-07-13T02:56:32;2.80;;;1.73;;
33993;SDS011;20673;48.980;8.138;2023-07-13T02:58:59;3.40;;;1.72;;
33993;SDS011;20673;48.980;8.138;2023-07-13T03:01:25;3.70;;;1.80;;
33993;SDS011;20673;48.980;8.138;2023-07-13T03:03:51;2.60;;;1.85;;
33993;SDS011;20673;48.980;8.138;2023-07-13T03:06:18;3.37;;;2.00;;
33993;SDS011;20673;48.980;8.138;2023-07-13T03:08:44;9.03;;;2.37;;
33993;SDS011;20673;48.980;8.138;2023-07-13T03:11:12;4.33;;;1.77;;
33993;SDS011;20673;48.980;8.138;2023-07-13T03:13:41;3.73;;;2.23;;
33993;SDS011;20673;48.980;8.138;2023-07-13T03:16:08;3.85;;;1.85;;
33993;SDS011;20673;48.980;8.138;2023-07-13T03:18:36;4.25;;;2.00;;
33993;SDS011;20673;48.980;8.138;2023-07-13T03:21:03;3.20;;;2.25;;
33993;SDS011;20673;48.980;8.138;2023-07-13T03:23:31;3.40;;;1.67;;
33993;SDS011;20673;48.980;8.138;2023-07-13T03:26:13;5.72;;;2.08;;
33993;SDS011;20673;48.980;8.138;2023-07-13T03:28:45;3.35;;;1.92;;
33993;SDS011;20673;48.980;8.138;2023-07-13T03:31:17;3.00;;;2.05;;
33993;SDS011;20673;48.980;8.138;2023-07-13T03:33:47;3.55;;;2.17;;
33993;SDS011;20673;48.980;8.138;2023-07-13T03:36:18;3.52;;;2.08;;
33993;SDS011;20673;48.980;8.138;2023-07-13T03:38:49;3.20;;;2.05;;
33993;SDS011;20673;48.980;8.138;2023-07-13T03:41:19;3.97;;;1.80;;
33993;SDS011;20673;48.980;8.138;2023-07-13T03:43:48;2.50;;;1.80;;
33993;SDS011;20673;48.980;8.138;2023-07-13T03:46:14;3.13;;;2.10;;
33993;SDS011;20673;48.980;8.138;2023-07-13T03:48:43;3.67;;;2.00;;
33993;SDS011;20673;48.980;8.138;2023-07-13T03:51:12;3.00;;;2.00;;
33993;SDS011;20673;48.980;8.138;2023-07-13T03:53:41;2.23;;;1.90;;
33993;SDS011;20673;48.980;8.138;2023-07-13T03:56:10;6.90;;;2.13;;
33993;SDS011;20673;48.980;8.138;2023-07-13T03:58:38;4.40;;;2.30;;
33993;SDS011;20673;48.980;8.138;2023-07-13T04:01:07;3.20;;;1.90;;
33993;SDS011;20673;48.980;8.138;2023-07-13T04:03:35;7.67;;;2.40;;
33993;SDS011;20673;48.980;8.138;2023-07-13T04:06:03;3.80;;;2.43;;
33993;SDS011;20673;48.980;8.138;2023-07-13T04:08:33;3.73;;;2.37;;
33993;SDS011;20673;48.980;8.138;2023-07-13T04:11:01;3.13;;;2.10;;
33993;SDS011;20673;48.980;8.138;2023-07-13T04:13:29;4.70;;;2.30;;
33993;SDS011;20673;48.980;8.138;2023-07-13T04:15:56;6.90;;;2.53;;
33993;SDS011;20673;48.980;8.138;2023-07-13T04:18:22;3.03;;;1.70;;
33993;SDS011;20673;48.980;8.138;2023-07-13T04:20:48;4.60;;;2.17;;
33993;SDS011;20673;48.980;8.138;2023-07-13T04:23:16;4.70;;;2.50;;
33993;SDS011;20673;48.980;8.138;2023-07-13T04:25:48;3.10;;;2.10;;
33993;SDS011;20673;48.980;8.138;2023-07-13T04:28:15;3.10;;;2.10;;
33993;SDS011;20673;48.980;8.138;2023-07-13T04:30:43;5.10;;;2.10;;
33993;SDS011;20673;48.980;8.138;2023-07-13T04:33:09;3.07;;;2.20;;
33993;SDS011;20673;48.980;8.138;2023-07-13T04:35:35;2.33;;;2.13;;
33993;SDS011;20673;48.980;8.138;2023-07-13T04:38:02;3.07;;;1.97;;
33993;SDS011;20673;48.980;8.138;2023-07-13T04:40:29;2.60;;;2.17;;
33993;SDS011;20673;48.980;8.138;2023-07-13T04:42:56;2.60;;;1.80;;
33993;SDS011;20673;48.980;8.138;2023-07-13T04:45:22;6.47;;;2.70;;
33993;SDS011;20673;48.980;8.138;2023-07-13T04:47:49;6.23;;;2.60;;
33993;SDS011;20673;48.980;8.138;2023-07-13T04:50:16;3.63;;;2.20;;
33993;SDS011;20673;48.980;8.138;2023-07-13T04:52:44;2.83;;;1.63;;
33993;SDS011;20673;48.980;8.138;2023-07-13T04:55:10;5.93;;;2.20;;
33993;SDS011;20673;48.980;8.138;2023-07-13T04:57:36;3.33;;;2.20;;
33993;SDS011;20673;48.980;8.138;2023-07-13T05:00:03;2.93;;;1.97;;
33993;SDS011;20673;48.980;8.138;2023-07-13T05:02:30;2.50;;;2.30;;
33993;SDS011;20673;48.980;8.138;2023-07-13T05:04:58;3.50;;;1.93;;
33993;SDS011;20673;48.980;8.138;2023-07-13T05:07:24;3.77;;;2.33;;
33993;SDS011;20673;48.980;8.138;2023-07-13T05:09:52;4.30;;;2.00;;
33993;SDS011;20673;48.980;8.138;2023-07-13T05:12:18;2.87;;;1.97;;
33993;SDS011;20673;48.980;8.138;2023-07-13T05:14:44;3.83;;;2.10;;
33993;SDS011;20673;48.980;8.138;2023-07-13T05:17:10;3.90;;;2.43;;
33993;SDS011;20673;48.980;8.138;2023-07-13T05:19:36;3.90;;;2.20;;
33993;SDS011;20673;48.980;8.138;2023-07-13T05:22:02;4.30;;;2.27;;
33993;SDS011;20673;48.980;8.138;2023-07-13T05:24:29;4.25;;;2.65;;
33993;SDS011;20673;48.980;8.138;2023-07-13T05:26:56;3.40;;;2.45;;
33993;SDS011;20673;48.980;8.138;2023-07-13T05:29:22;3.80;;;1.50;;
33993;SDS011;20673;48.980;8.138;2023-07-13T05:31:48;3.85;;;2.10;;
33993;SDS011;20673;48.980;8.138;2023-07-13T05:34:15;3.60;;;2.35;;
33993;SDS011;20673;48.980;8.138;2023-07-13T05:36:41;2.85;;;1.70;;
33993;SDS011;20673;48.980;8.138;2023-07-13T05:39:08;2.40;;;1.80;;
33993;SDS011;20673;48.980;8.138;2023-07-13T05:41:35;3.25;;;2.08;;
33993;SDS011;20673;48.980;8.138;2023-07-13T05:44:01;3.15;;;2.00;;
33993;SDS011;20673;48.980;8.138;2023-07-13T05:46:27;4.62;;;2.12;;
33993;SDS011;20673;48.980;8.138;2023-07-13T05:48:53;3.62;;;2.47;;
33993;SDS011;20673;48.980;8.138;2023-07-13T05:51:20;5.30;;;3.08;;
33993;SDS011;20673;48.980;8.138;2023-07-13T05:53:46;3.62;;;2.10;;
33993;SDS011;20673;48.980;8.138;2023-07-13T05:56:12;4.58;;;2.17;;
33993;SDS011;20673;48.980;8.138;2023-07-13T05:58:38;4.50;;;2.25;;
33993;SDS011;20673;48.980;8.138;2023-07-13T06:01:05;2.67;;;2.13;;
33993;SDS011;20673;48.980;8.138;2023-07-13T06:03:37;5.07;;;2.67;;
33993;SDS011;20673;48.980;8.138;2023-07-13T06:06:07;2.87;;;2.02;;
33993;SDS011;20673;48.980;8.138;2023-07-13T06:08:35;4.00;;;2.35;;
33993;SDS011;20673;48.980;8.138;2023-07-13T06:11:03;4.93;;;2.50;;
33993;SDS011;20673;48.980;8.138;2023-07-13T06:13:34;4.80;;;2.67;;
33993;SDS011;20673;48.980;8.138;2023-07-13T06:16:01;3.00;;;2.70;;
33993;SDS011;20673;48.980;8.138;2023-07-13T06:20:59;3.13;;;1.53;;
33993;SDS011;20673;48.980;8.138;2023-07-13T06:23:25;3.93;;;2.27;;
33993;SDS011;20673;48.980;8.138;2023-07-13T06:25:51;4.63;;;2.10;;
33993;SDS011;20673;48.980;8.138;2023-07-13T06:28:18;8.53;;;2.50;;
33993;SDS011;20673;48.980;8.138;2023-07-13T06:30:44;2.83;;;1.93;;
33993;SDS011;20673;48.980;8.138;2023-07-13T06:33:10;7.73;;;2.27;;
33993;SDS011;20673;48.980;8.138;2023-07-13T06:35:36;4.27;;;2.00;;
33993;SDS011;20673;48.980;8.138;2023-07-13T06:38:02;4.70;;;2.17;;
33993;SDS011;20673;48.980;8.138;2023-07-13T06:40:28;4.05;;;2.50;;
33993;SDS011;20673;48.980;8.138;2023-07-13T06:42:55;5.85;;;2.37;;
33993;SDS011;20673;48.980;8.138;2023-07-13T06:45:22;4.03;;;1.80;;
33993;SDS011;20673;48.980;8.138;2023-07-13T06:47:48;6.92;;;2.72;;
33993;SDS011;20673;48.980;8.138;2023-07-13T06:50:15;4.13;;;1.83;;
33993;SDS011;20673;48.980;8.138;2023-07-13T06:52:41;3.42;;;1.77;;
33993;SDS011;20673;48.980;8.138;2023-07-13T06:55:07;6.83;;;2.33;;
33993;SDS011;20673;48.980;8.138;2023-07-13T06:57:34;6.93;;;2.30;;
33993;SDS011;20673;48.980;8.138;2023-07-13T07:00:00;3.10;;;1.63;;
33993;SDS011;20673;48.980;8.138;2023-07-13T07:02:26;4.57;;;2.13;;
33993;SDS011;20673;48.980;8.138;2023-07-13T07:04:52;5.83;;;2.30;;
33993;SDS011;20673;48.980;8.138;2023-07-13T07:07:19;3.43;;;1.80;;
33993;SDS011;20673;48.980;8.138;2023-07-13T07:09:47;7.43;;;2.50;;
33993;SDS011;20673;48.980;8.138;2023-07-13T07:12:13;3.30;;;2.03;;
33993;SDS011;20673;48.980;8.138;2023-07-13T07:14:39;4.55;;;1.72;;
33993;SDS011;20673;48.980;8.138;2023-07-13T07:17:05;6.00;;;2.10;;
33993;SDS011;20673;48.980;8.138;2023-07-13T07:19:31;3.42;;;1.60;;
33993;SDS011;20673;48.980;8.138;2023-07-13T07:21:57;2.40;;;1.45;;
33993;SDS011;20673;48.980;8.138;2023-07-13T07:24:23;5.05;;;1.42;;
33993;SDS011;20673;48.980;8.138;2023-07-13T07:26:50;6.30;;;1.90;;
33993;SDS011;20673;48.980;8.138;2023-07-13T07:29:16;3.20;;;1.50;;
33993;SDS011;20673;48.980;8.138;2023-07-13T07:31:42;2.25;;;1.32;;
33993;SDS011;20673;48.980;8.138;2023-07-13T07:34:08;2.62;;;1.50;;
33993;SDS011;20673;48.980;8.138;2023-07-13T07:36:34;3.77;;;1.77;;
33993;SDS011;20673;48.980;8.138;2023-07-13T07:39:00;5.85;;;1.22;;
33993;SDS011;20673;48.980;8.138;2023-07-13T07:41:26;4.55;;;1.15;;
33993;SDS011;20673;48.980;8.138;2023-07-13T07:43:52;3.08;;;1.32;;
33993;SDS011;20673;48.980;8.138;2023-07-13T07:46:19;2.47;;;1.17;;
33993;SDS011;20673;48.980;8.138;2023-07-13T07:48:45;5.55;;;1.20;;
33993;SDS011;20673;48.980;8.138;2023-07-13T07:51:11;5.90;;;1.37;;
33993;SDS011;20673;48.980;8.138;2023-07-13T07:53:37;3.98;;;1.10;;
33993;SDS011;20673;48.980;8.138;2023-07-13T07:56:03;3.40;;;1.00;;
33993;SDS011;20673;48.980;8.138;2023-07-13T07:58:29;5.25;;;1.20;;
33993;SDS011;20673;48.980;8.138;2023-07-13T08:01:01;4.10;;;1.12;;
33993;SDS011;20673;48.980;8.138;2023-07-13T08:03:32;4.97;;;1.37;;
33993;SDS011;20673;48.980;8.138;2023-07-13T08:05:58;2.65;;;1.30;;
33993;SDS011;20673;48.980;8.138;2023-07-13T08:08:24;4.25;;;1.40;;
33993;SDS011;20673;48.980;8.138;2023-07-13T08:10:50;3.12;;;1.47;;
33993;SDS011;20673;48.980;8.138;2023-07-13T08:13:17;4.55;;;1.10;;
33993;SDS011;20673;48.980;8.138;2023-07-13T08:15:43;3.77;;;1.37;;
33993;SDS011;20673;48.980;8.138;2023-07-13T08:18:09;3.02;;;1.50;;
33993;SDS011;20673;48.980;8.138;2023-07-13T08:20:38;4.75;;;1.60;;
33993;SDS011;20673;48.980;8.138;2023-07-13T08:23:05;3.60;;;1.12;;
33993;SDS011;20673;48.980;8.138;2023-07-13T08:25:33;2.47;;;1.32;;
33993;SDS011;20673;48.980;8.138;2023-07-13T08:28:00;3.27;;;1.17;;
33993;SDS011;20673;48.980;8.138;2023-07-13T08:30:27;2.15;;;1.10;;
33993;SDS011;20673;48.980;8.138;2023-07-13T08:32:53;3.95;;;1.37;;
33993;SDS011;20673;48.980;8.138;2023-07-13T08:35:19;4.83;;;1.12;;
33993;SDS011;20673;48.980;8.138;2023-07-13T08:37:46;3.92;;;1.22;;
33993;SDS011;20673;48.980;8.138;2023-07-13T08:40:12;3.42;;;1.20;;
33993;SDS011;20673;48.980;8.138;2023-07-13T08:42:39;3.60;;;1.42;;
33993;SDS011;20673;48.980;8.138;2023-07-13T08:51:00;2.85;;;1.10;;
33993;SDS011;20673;48.980;8.138;2023-07-13T08:53:16;3.10;;;1.10;;
33993;SDS011;20673;48.980;8.138;2023-07-13T08:55:44;3.42;;;1.30;;
33993;SDS011;20673;48.980;8.138;2023-07-13T08:58:16;6.40;;;1.22;;
33993;SDS011;20673;48.980;8.138;2023-07-13T09:03:24;2.72;;;1.05;;
33993;SDS011;20673;48.980;8.138;2023-07-13T09:05:58;6.22;;;1.20;;
33993;SDS011;20673;48.980;8.138;2023-07-13T09:08:52;3.92;;;1.07;;
33993;SDS011;20673;48.980;8.138;2023-07-13T09:11:37;4.35;;;1.12;;
33993;SDS011;20673;48.980;8.138;2023-07-13T09:14:57;1.60;;;0.95;;
33993;SDS011;20673;48.980;8.138;2023-07-13T09:16:53;2.55;;;1.20;;
33993;SDS011;20673;48.980;8.138;2023-07-13T09:19:26;3.70;;;1.32;;
33993;SDS011;20673;48.980;8.138;2023-07-13T09:27:19;3.85;;;1.37;;
33993;SDS011;20673;48.980;8.138;2023-07-13T09:29:57;4.10;;;1.00;;
33993;SDS011;20673;48.980;8.138;2023-07-13T09:32:43;3.37;;;1.22;;
33993;SDS011;20673;48.980;8.138;2023-07-13T09:35:15;2.92;;;0.90;;
33993;SDS011;20673;48.980;8.138;2023-07-13T09:37:56;3.30;;;1.15;;
33993;SDS011;20673;48.980;8.138;2023-07-13T09:46:40;3.62;;;1.25;;
33993;SDS011;20673;48.980;8.138;2023-07-13T09:49:22;4.83;;;1.00;;
33993;SDS011;20673;48.980;8.138;2023-07-13T09:54:31;3.72;;;1.10;;
33993;SDS011;20673;48.980;8.138;2023-07-13T09:57:02;2.55;;;1.02;;
33993;SDS011;20673;48.980;8.138;2023-07-13T09:59:45;4.08;;;1.35;;
33993;SDS011;20673;48.980;8.138;2023-07-13T10:05:11;4.28;;;1.15;;
33993;SDS011;20673;48.980;8.138;2023-07-13T10:07:44;3.22;;;1.20;;
33993;SDS011;20673;48.980;8.138;2023-07-13T10:10:14;2.37;;;0.90;;
33993;SDS011;20673;48.980;8.138;2023-07-13T10:12:45;1.90;;;1.10;;
33993;SDS011;20673;48.980;8.138;2023-07-13T10:15:13;3.27;;;1.35;;
33993;SDS011;20673;48.980;8.138;2023-07-13T10:17:43;2.63;;;1.10;;
33993;SDS011;20673;48.980;8.138;2023-07-13T10:20:11;5.33;;;1.30;;
33993;SDS011;20673;48.980;8.138;2023-07-13T10:22:49;4.87;;;1.40;;
33993;SDS011;20673;48.980;8.138;2023-07-13T10:25:27;5.72;;;1.50;;
33993;SDS011;20673;48.980;8.138;2023-07-13T10:28:06;4.25;;;1.30;;
33993;SDS011;20673;48.980;8.138;2023-07-13T10:30:45;3.83;;;1.47;;
33993;SDS011;20673;48.980;8.138;2023-07-13T10:33:14;2.77;;;1.37;;
33993;SDS011;20673;48.980;8.138;2023-07-13T10:35:40;4.05;;;1.12;;
33993;SDS011;20673;48.980;8.138;2023-07-13T10:38:13;2.65;;;1.30;;
33993;SDS011;20673;48.980;8.138;2023-07-13T10:43:25;2.10;;;1.37;;
33993;SDS011;20673;48.980;8.138;2023-07-13T10:46:02;3.45;;;1.22;;
33993;SDS011;20673;48.980;8.138;2023-07-13T10:48:33;6.17;;;1.05;;
33993;SDS011;20673;48.980;8.138;2023-07-13T10:51:03;3.75;;;1.22;;
33993;SDS011;20673;48.980;8.138;2023-07-13T10:53:33;3.17;;;1.20;;
33993;SDS011;20673;48.980;8.138;2023-07-13T10:56:03;3.30;;;1.00;;
33993;SDS011;20673;48.980;8.138;2023-07-13T10:58:46;4.90;;;1.05;;
33993;SDS011;20673;48.980;8.138;2023-07-13T11:01:14;1.95;;;1.20;;
33993;SDS011;20673;48.980;8.138;2023-07-13T11:06:34;4.25;;;1.40;;
33993;SDS011;20673;48.980;8.138;2023-07-13T11:09:18;2.98;;;1.25;;
33993;SDS011;20673;48.980;8.138;2023-07-13T11:12:01;2.17;;;1.17;;
33993;SDS011;20673;48.980;8.138;2023-07-13T11:15:00;3.42;;;1.20;;
33993;SDS011;20673;48.980;8.138;2023-07-13T11:22:53;2.95;;;0.90;;
33993;SDS011;20673;48.980;8.138;2023-07-13T11:33:45;4.53;;;1.15;;
33993;SDS011;20673;48.980;8.138;2023-07-13T11:36:14;3.35;;;1.10;;
33993;SDS011;20673;48.980;8.138;2023-07-13T11:39:00;2.90;;;1.10;;
33993;SDS011;20673;48.980;8.138;2023-07-13T11:41:35;3.55;;;1.07;;
33993;SDS011;20673;48.980;8.138;2023-07-13T11:44:14;2.75;;;1.10;;
33993;SDS011;20673;48.980;8.138;2023-07-13T11:46:47;2.90;;;1.10;;
33993;SDS011;20673;48.980;8.138;2023-07-13T11:49:20;4.08;;;1.20;;
33993;SDS011;20673;48.980;8.138;2023-07-13T11:51:53;2.25;;;1.20;;
33993;SDS011;20673;48.980;8.138;2023-07-13T11:54:28;4.40;;;1.15;;
33993;SDS011;20673;48.980;8.138;2023-07-13T11:57:03;2.17;;;1.20;;
33993;SDS011;20673;48.980;8.138;2023-07-13T11:59:34;4.47;;;1.12;;
33993;SDS011;20673;48.980;8.138;2023-07-13T12:02:23;4.22;;;1.05;;
33993;SDS011;20673;48.980;8.138;2023-07-13T12:04:50;1.62;;;0.75;;
33993;SDS011;20673;48.980;8.138;2023-07-13T12:07:18;4.58;;;1.37;;
33993;SDS011;20673;48.980;8.138;2023-07-13T12:09:45;1.92;;;1.00;;
33993;SDS011;20673;48.980;8.138;2023-07-13T12:14:44;3.27;;;1.10;;
33993;SDS011;20673;48.980;8.138;2023-07-13T12:17:16;4.30;;;0.82;;
33993;SDS011;20673;48.980;8.138;2023-07-13T12:19:44;4.30;;;1.20;;
33993;SDS011;20673;48.980;8.138;2023-07-13T12:22:12;5.50;;;1.20;;
33993;SDS011;20673;48.980;8.138;2023-07-13T12:24:41;2.37;;;1.02;;
33993;SDS011;20673;48.980;8.138;2023-07-13T12:29:56;3.47;;;1.12;;
33993;SDS011;20673;48.980;8.138;2023-07-13T12:32:26;2.95;;;1.02;;
33993;SDS011;20673;48.980;8.138;2023-07-13T12:34:56;3.70;;;1.32;;
33993;SDS011;20673;48.980;8.138;2023-07-13T12:37:29;2.33;;;1.12;;
33993;SDS011;20673;48.980;8.138;2023-07-13T12:39:59;3.50;;;1.27;;
33993;SDS011;20673;48.980;8.138;2023-07-13T12:42:28;3.25;;;0.95;;
33993;SDS011;20673;48.980;8.138;2023-07-13T12:45:19;3.08;;;1.00;;
33993;SDS011;20673;48.980;8.138;2023-07-13T12:47:55;5.60;;;1.10;;
33993;SDS011;20673;48.980;8.138;2023-07-13T12:50:37;4.70;;;1.12;;
33993;SDS011;20673;48.980;8.138;2023-07-13T12:53:23;5.90;;;1.10;;
33993;SDS011;20673;48.980;8.138;2023-07-13T12:55:46;4.05;;;1.07;;
33993;SDS011;20673;48.980;8.138;2023-07-13T12:58:36;2.20;;;1.12;;
33993;SDS011;20673;48.980;8.138;2023-07-13T13:01:03;4.85;;;1.12;;
33993;SDS011;20673;48.980;8.138;2023-07-13T13:03:38;2.25;;;0.90;;
33993;SDS011;20673;48.980;8.138;2023-07-13T13:08:52;2.62;;;1.00;;
33993;SDS011;20673;48.980;8.138;2023-07-13T13:11:27;3.00;;;1.10;;
33993;SDS011;20673;48.980;8.138;2023-07-13T13:13:56;3.15;;;1.15;;
33993;SDS011;20673;48.980;8.138;2023-07-13T13:16:23;3.55;;;0.90;;
33993;SDS011;20673;48.980;8.138;2023-07-13T13:18:59;4.20;;;1.00;;
33993;SDS011;20673;48.980;8.138;2023-07-13T13:21:46;2.98;;;1.10;;
33993;SDS011;20673;48.980;8.138;2023-07-13T13:24:15;4.53;;;1.50;;
33993;SDS011;20673;48.980;8.138;2023-07-13T13:26:45;3.45;;;0.93;;
33993;SDS011;20673;48.980;8.138;2023-07-13T13:29:14;2.58;;;0.90;;
33993;SDS011;20673;48.980;8.138;2023-07-13T13:31:44;2.33;;;1.00;;
33993;SDS011;20673;48.980;8.138;2023-07-13T13:34:10;4.90;;;0.93;;
33993;SDS011;20673;48.980;8.138;2023-07-13T13:36:40;2.00;;;0.95;;
33993;SDS011;20673;48.980;8.138;2023-07-13T13:39:16;4.42;;;1.15;;
33993;SDS011;20673;48.980;8.138;2023-07-13T13:41:51;4.40;;;1.10;;
33993;SDS011;20673;48.980;8.138;2023-07-13T13:44:20;4.00;;;1.37;;
33993;SDS011;20673;48.980;8.138;2023-07-13T13:46:49;2.50;;;1.15;;
33993;SDS011;20673;48.980;8.138;2023-07-13T13:49:24;2.15;;;0.90;;
33993;SDS011;20673;48.980;8.138;2023-07-13T13:51:50;4.70;;;1.15;;
33993;SDS011;20673;48.980;8.138;2023-07-13T13:54:18;2.40;;;0.80;;
33993;SDS011;20673;48.980;8.138;2023-07-13T13:56:47;3.37;;;1.02;;
33993;SDS011;20673;48.980;8.138;2023-07-13T13:59:16;3.27;;;1.45;;
33993;SDS011;20673;48.980;8.138;2023-07-13T14:01:44;3.87;;;1.25;;
33993;SDS011;20673;48.980;8.138;2023-07-13T14:04:21;4.20;;;0.80;;
33993;SDS011;20673;48.980;8.138;2023-07-13T14:06:48;2.83;;;1.05;;
33993;SDS011;20673;48.980;8.138;2023-07-13T14:09:16;3.15;;;1.00;;
33993;SDS011;20673;48.980;8.138;2023-07-13T14:11:45;1.75;;;1.12;;
33993;SDS011;20673;48.980;8.138;2023-07-13T14:14:19;3.33;;;1.40;;
33993;SDS011;20673;48.980;8.138;2023-07-13T14:16:45;3.25;;;1.20;;
33993;SDS011;20673;48.980;8.138;2023-07-13T14:19:15;2.70;;;1.25;;
33993;SDS011;20673;48.980;8.138;2023-07-13T14:21:41;3.25;;;0.93;;
33993;SDS011;20673;48.980;8.138;2023-07-13T14:24:07;3.22;;;1.10;;
33993;SDS011;20673;48.980;8.138;2023-07-13T14:26:35;5.60;;;1.10;;
33993;SDS011;20673;48.980;8.138;2023-07-13T14:29:05;4.55;;;1.12;;
33993;SDS011;20673;48.980;8.138;2023-07-13T14:31:43;4.62;;;1.27;;
33993;SDS011;20673;48.980;8.138;2023-07-13T14:34:10;4.97;;;1.35;;
33993;SDS011;20673;48.980;8.138;2023-07-13T14:36:42;2.95;;;1.20;;
33993;SDS011;20673;48.980;8.138;2023-07-13T14:39:16;1.37;;;0.80;;
33993;SDS011;20673;48.980;8.138;2023-07-13T14:41:45;1.32;;;0.90;;
33993;SDS011;20673;48.980;8.138;2023-07-13T14:44:14;1.70;;;0.78;;
33993;SDS011;20673;48.980;8.138;2023-07-13T14:46:43;3.02;;;1.22;;
33993;SDS011;20673;48.980;8.138;2023-07-13T14:52:00;3.92;;;1.42;;
33993;SDS011;20673;48.980;8.138;2023-07-13T14:54:30;4.78;;;1.10;;
33993;SDS011;20673;48.980;8.138;2023-07-13T14:56:56;3.27;;;1.30;;
33993;SDS011;20673;48.980;8.138;2023-07-13T14:59:22;2.33;;;1.15;;
33993;SDS011;20673;48.980;8.138;2023-07-13T15:01:49;2.50;;;1.20;;
33993;SDS011;20673;48.980;8.138;2023-07-13T15:04:16;5.70;;;1.52;;
33993;SDS011;20673;48.980;8.138;2023-07-13T15:06:54;3.42;;;1.17;;
33993;SDS011;20673;48.980;8.138;2023-07-13T15:09:27;2.00;;;1.00;;
33993;SDS011;20673;48.980;8.138;2023-07-13T15:11:57;3.60;;;1.60;;
33993;SDS011;20673;48.980;8.138;2023-07-13T15:14:24;3.65;;;1.10;;
33993;SDS011;20673;48.980;8.138;2023-07-13T15:16:52;2.35;;;1.30;;
33993;SDS011;20673;48.980;8.138;2023-07-13T15:19:21;4.17;;;1.00;;
33993;SDS011;20673;48.980;8.138;2023-07-13T15:21:50;4.25;;;1.12;;
33993;SDS011;20673;48.980;8.138;2023-07-13T15:24:17;3.67;;;1.02;;
33993;SDS011;20673;48.980;8.138;2023-07-13T15:26:43;2.22;;;1.10;;
33993;SDS011;20673;48.980;8.138;2023-07-13T15:29:11;3.85;;;1.80;;
33993;SDS011;20673;48.980;8.138;2023-07-13T15:31:38;2.37;;;1.00;;
33993;SDS011;20673;48.980;8.138;2023-07-13T15:34:11;3.95;;;1.45;;
33993;SDS011;20673;48.980;8.138;2023-07-13T15:36:41;3.17;;;1.00;;
33993;SDS011;20673;48.980;8.138;2023-07-13T15:39:09;2.67;;;1.22;;
33993;SDS011;20673;48.980;8.138;2023-07-13T15:41:41;2.95;;;1.27;;
33993;SDS011;20673;48.980;8.138;2023-07-13T15:44:29;7.35;;;1.45;;
33993;SDS011;20673;48.980;8.138;2023-07-13T15:46:57;4.50;;;2.27;;
33993;SDS011;20673;48.980;8.138;2023-07-13T15:49:25;2.45;;;1.10;;
33993;SDS011;20673;48.980;8.138;2023-07-13T15:51:51;1.65;;;1.00;;
33993;SDS011;20673;48.980;8.138;2023-07-13T15:54:18;1.55;;;1.20;;
33993;SDS011;20673;48.980;8.138;2023-07-13T15:56:46;3.95;;;1.17;;
33993;SDS011;20673;48.980;8.138;2023-07-13T15:59:17;4.72;;;1.60;;